Time;durP1;ratioP1;P1;durP2;ratioP2;P2;SDS_P1;SDS_P2;PMS_P1;PMS_P2;Temp;Humidity;BMP_temperature;BMP_pressure;BME280_temperature;BME280_humidity;BME280_pressure;Samples;Min_cycle;Max_cycle;Signal;HPM_P1;HPM_P2
2023/03/04 00:01:42;;;;;;;37.40;21.80;;;2.20;99.90;;;;;;5055783;28;20210;-62
2023/03/04 00:04:08;;;;;;;42.47;21.90;;;2.20;99.90;;;;;;5055600;28;20656;-62
2023/03/04 00:06:33;;;;;;;39.97;24.13;;;2.20;99.90;;;;;;5055653;28;20222;-63
2023/03/04 00:08:59;;;;;;;41.07;22.37;;;2.20;99.90;;;;;;5058432;28;20193;-63
2023/03/04 00:11:24;;;;;;;37.60;22.77;;;2.10;99.90;;;;;;5053856;28;20198;-63
2023/03/04 00:13:50;;;;;;;40.13;21.57;;;2.10;99.90;;;;;;5054589;28;20711;-64
2023/03/04 00:16:15;;;;;;;34.70;21.17;;;2.10;99.90;;;;;;5058454;28;20203;-64
2023/03/04 00:18:41;;;;;;;41.67;21.93;;;2.20;99.90;;;;;;5057969;28;20673;-63
2023/03/04 00:21:06;;;;;;;37.93;21.27;;;2.20;99.90;;;;;;5058080;28;20206;-63
2023/03/04 00:23:32;;;;;;;42.60;22.67;;;2.20;99.90;;;;;;4982440;28;20396;-63
2023/03/04 00:25:57;;;;;;;33.53;20.43;;;2.30;99.90;;;;;;5056548;28;20688;-63
2023/03/04 00:28:23;;;;;;;37.90;21.47;;;2.20;99.90;;;;;;5057815;28;20567;-64
2023/03/04 00:30:49;;;;;;;39.70;22.00;;;2.30;99.90;;;;;;5059145;28;20286;-63
2023/03/04 00:33:14;;;;;;;35.33;21.27;;;2.20;99.90;;;;;;5059515;28;20660;-63
2023/03/04 00:35:40;;;;;;;43.30;23.30;;;2.20;99.90;;;;;;5058924;28;21005;-64
2023/03/04 00:38:05;;;;;;;40.80;21.43;;;2.20;99.90;;;;;;5058486;28;20196;-63
2023/03/04 00:40:31;;;;;;;39.77;20.83;;;2.20;99.90;;;;;;5057613;28;20198;-63
2023/03/04 00:42:56;;;;;;;38.53;21.33;;;2.30;99.90;;;;;;5057638;28;20259;-64
2023/03/04 00:45:22;;;;;;;37.17;20.33;;;2.40;99.90;;;;;;5057642;28;20746;-66
2023/03/04 00:47:47;;;;;;;32.77;20.70;;;2.50;99.90;;;;;;5057837;28;20213;-66
2023/03/04 00:50:13;;;;;;;39.10;18.97;;;2.50;99.90;;;;;;5058214;28;20192;-65
2023/03/04 00:52:38;;;;;;;38.57;20.10;;;2.50;99.90;;;;;;5056756;28;20208;-63
2023/03/04 00:55:05;;;;;;;35.67;18.20;;;2.50;99.90;;;;;;5057999;28;20231;-67
2023/03/04 00:57:30;;;;;;;33.73;17.67;;;2.60;99.90;;;;;;5037915;28;20328;-63
2023/03/04 00:59:56;;;;;;;30.63;16.83;;;3.00;99.90;;;;;;5057586;28;20243;-60
2023/03/04 01:02:21;;;;;;;32.77;15.90;;;3.30;99.90;;;;;;5057377;28;20255;-60
2023/03/04 01:04:47;;;;;;;32.03;16.83;;;3.40;99.90;;;;;;5056271;28;20218;-61
2023/03/04 01:07:12;;;;;;;26.83;14.13;;;3.40;99.90;;;;;;5054434;28;20191;-61
2023/03/04 01:09:38;;;;;;;31.10;14.37;;;3.50;99.90;;;;;;5057200;28;20201;-71
2023/03/04 01:12:03;;;;;;;34.20;15.73;;;3.50;99.90;;;;;;5057527;28;20228;-68
2023/03/04 01:14:29;;;;;;;26.67;14.07;;;3.20;99.90;;;;;;5057544;28;20261;-67
2023/03/04 01:16:54;;;;;;;30.60;16.00;;;3.00;99.90;;;;;;5057270;28;20204;-66
2023/03/04 01:19:20;;;;;;;35.03;14.87;;;2.90;99.90;;;;;;5056954;28;20327;-66
2023/03/04 01:21:45;;;;;;;27.47;12.70;;;2.90;99.90;;;;;;5002441;28;21284;-71
2023/03/04 01:24:11;;;;;;;25.10;12.63;;;2.90;99.90;;;;;;5058029;28;20237;-69
2023/03/04 01:26:36;;;;;;;39.67;13.37;;;2.90;99.90;;;;;;5057385;28;20578;-67
2023/03/04 01:29:03;;;;;;;36.20;12.63;;;2.90;99.90;;;;;;5056970;28;20224;-65
2023/03/04 01:31:28;;;;;;;24.47;11.03;;;2.90;99.90;;;;;;5056982;28;20197;-68
2023/03/04 01:33:54;;;;;;;29.87;11.40;;;2.90;99.90;;;;;;5056941;28;20198;-68
2023/03/04 01:36:19;;;;;;;31.93;12.00;;;2.90;99.90;;;;;;5054970;28;20280;-68
2023/03/04 01:38:45;;;;;;;19.80;10.90;;;2.90;99.90;;;;;;5057153;28;20667;-69
2023/03/04 01:41:12;;;;;;;20.40;11.43;;;2.90;99.90;;;;;;5056375;28;20227;-62
2023/03/04 01:43:38;;;;;;;26.53;11.50;;;2.90;99.90;;;;;;5055521;28;20210;-63
2023/03/04 01:46:04;;;;;;;31.77;11.20;;;2.90;99.90;;;;;;5053816;28;20639;-63
2023/03/04 01:48:35;;;;;;;31.43;11.90;;;2.90;99.90;;;;;;5051421;28;20305;-62
2023/03/04 01:51:02;;;;;;;23.83;10.37;;;3.00;99.90;;;;;;5051411;28;20199;-63
2023/03/04 01:53:29;;;;;;;19.37;11.27;;;3.00;99.90;;;;;;5051774;28;20201;-62
2023/03/04 01:56:15;;;;;;;20.87;11.23;;;3.00;99.90;;;;;;5053418;28;20439;-63
2023/03/04 01:58:41;;;;;;;23.90;10.27;;;3.00;99.90;;;;;;5049634;28;20306;-63
2023/03/04 02:01:09;;;;;;;19.80;9.80;;;3.10;99.90;;;;;;5050667;28;20207;-64
2023/03/04 02:03:35;;;;;;;20.87;9.93;;;3.10;99.90;;;;;;5052262;28;20976;-63
2023/03/04 02:06:00;;;;;;;26.63;10.47;;;3.20;99.90;;;;;;5052035;28;20193;-63
2023/03/04 02:08:26;;;;;;;26.87;10.13;;;3.20;99.90;;;;;;5054604;28;20935;-63
2023/03/04 02:10:53;;;;;;;17.87;9.80;;;3.20;99.90;;;;;;5056781;28;20201;-63
2023/03/04 02:13:18;;;;;;;17.47;8.43;;;3.20;99.90;;;;;;5054754;28;20694;-63
2023/03/04 02:15:45;;;;;;;20.67;8.83;;;3.30;99.90;;;;;;5057059;28;20212;-62
2023/03/04 02:18:22;;;;;;;28.17;9.07;;;3.30;99.90;;;;;;5056894;28;20652;-62
2023/03/04 02:21:02;;;;;;;15.40;8.00;;;3.30;99.90;;;;;;5056415;28;20236;-62
2023/03/04 02:24:01;;;;;;;14.10;7.77;;;3.40;99.90;;;;;;4992828;28;20229;-63
2023/03/04 02:26:29;;;;;;;24.77;9.10;;;3.40;99.90;;;;;;5054387;28;20221;-63
2023/03/04 02:28:57;;;;;;;18.70;8.43;;;3.40;99.90;;;;;;5056491;28;20202;-62
2023/03/04 02:31:25;;;;;;;15.20;7.77;;;3.40;99.90;;;;;;5054408;28;20198;-63
2023/03/04 02:33:53;;;;;;;19.90;8.10;;;3.50;99.90;;;;;;5056843;28;20561;-63
2023/03/04 02:36:19;;;;;;;14.40;6.43;;;3.50;99.90;;;;;;5056595;28;20255;-62
2023/03/04 02:38:45;;;;;;;17.93;7.90;;;3.50;99.90;;;;;;5056564;28;20304;-62
2023/03/04 02:41:14;;;;;;;25.20;8.77;;;3.60;99.90;;;;;;5056742;28;20293;-63
2023/03/04 02:43:40;;;;;;;17.90;7.30;;;3.60;99.90;;;;;;5056310;28;20214;-63
2023/03/04 02:46:06;;;;;;;19.90;7.67;;;3.60;99.90;;;;;;5056517;28;20247;-62
2023/03/04 02:48:31;;;;;;;20.57;8.67;;;3.60;99.90;;;;;;5056497;28;20227;-62
2023/03/04 02:50:56;;;;;;;25.97;8.00;;;3.70;99.90;;;;;;5056589;28;20197;-62
2023/03/04 02:53:24;;;;;;;16.33;9.10;;;3.70;99.90;;;;;;5056901;28;20281;-62
2023/03/04 02:55:50;;;;;;;23.83;9.17;;;3.70;99.90;;;;;;5054875;28;20405;-63
2023/03/04 02:58:16;;;;;;;21.03;7.87;;;3.70;99.90;;;;;;5056804;28;20732;-62
2023/03/04 03:00:41;;;;;;;16.33;8.37;;;3.70;99.90;;;;;;5056916;28;20678;-62
2023/03/04 03:03:08;;;;;;;15.67;7.73;;;3.70;99.90;;;;;;5056400;28;20204;-62
2023/03/04 03:05:34;;;;;;;13.10;6.03;;;3.70;99.90;;;;;;5056403;28;20271;-62
2023/03/04 03:07:59;;;;;;;20.97;8.67;;;3.70;99.90;;;;;;5054017;28;20190;-62
2023/03/04 03:10:25;;;;;;;21.80;7.17;;;3.70;99.90;;;;;;5056702;28;20197;-62
2023/03/04 03:12:51;;;;;;;19.10;7.47;;;3.70;99.90;;;;;;5056273;28;20415;-62
2023/03/04 03:15:17;;;;;;;26.63;7.80;;;3.70;99.90;;;;;;5056277;28;20213;-62
2023/03/04 03:17:43;;;;;;;17.80;6.23;;;3.70;99.90;;;;;;5056418;28;20194;-62
2023/03/04 03:20:11;;;;;;;16.33;6.50;;;3.70;99.90;;;;;;5055813;28;20293;-62
2023/03/04 03:22:37;;;;;;;16.30;6.80;;;3.70;99.90;;;;;;5011474;28;20271;-63
2023/03/04 03:25:03;;;;;;;22.10;7.03;;;3.70;99.90;;;;;;5056258;28;20241;-63
2023/03/04 03:27:29;;;;;;;15.67;7.10;;;3.70;99.90;;;;;;5056199;28;20201;-62
2023/03/04 03:29:54;;;;;;;15.90;7.37;;;3.70;99.90;;;;;;5056123;28;20250;-61
2023/03/04 03:32:20;;;;;;;20.77;7.20;;;3.70;99.90;;;;;;5054116;28;20209;-61
2023/03/04 03:34:45;;;;;;;14.80;6.03;;;3.70;99.90;;;;;;5056926;28;20250;-61
2023/03/04 03:37:11;;;;;;;16.47;7.20;;;3.70;99.90;;;;;;5056450;28;20212;-61
2023/03/04 03:39:36;;;;;;;17.60;6.83;;;3.70;99.90;;;;;;5055305;28;20759;-62
2023/03/04 03:42:01;;;;;;;21.97;6.50;;;3.80;99.90;;;;;;5056059;28;20221;-61
2023/03/04 03:44:27;;;;;;;16.03;6.67;;;3.80;99.90;;;;;;5058322;28;20606;-62
2023/03/04 03:46:52;;;;;;;18.13;7.40;;;3.90;99.90;;;;;;5059574;28;20194;-62
2023/03/04 03:49:18;;;;;;;27.57;7.37;;;3.90;99.90;;;;;;5059751;28;21022;-61
2023/03/04 03:51:43;;;;;;;18.37;6.47;;;3.80;99.90;;;;;;5060063;28;20202;-62
2023/03/04 03:54:09;;;;;;;17.33;6.20;;;3.80;99.90;;;;;;5059531;28;20353;-62
2023/03/04 03:56:34;;;;;;;10.87;6.00;;;3.90;99.90;;;;;;5059700;28;20552;-62
2023/03/04 03:59:00;;;;;;;20.97;6.50;;;3.90;99.90;;;;;;5059290;28;20208;-62
2023/03/04 04:01:26;;;;;;;15.43;6.13;;;3.90;99.90;;;;;;5057777;28;20209;-61
2023/03/04 04:03:51;;;;;;;18.57;7.23;;;3.90;99.90;;;;;;5059242;28;20717;-61
2023/03/04 04:06:17;;;;;;;11.73;5.70;;;3.90;99.90;;;;;;5059144;28;20200;-61
2023/03/04 04:08:42;;;;;;;16.27;5.27;;;3.90;99.90;;;;;;5059270;28;20194;-62
2023/03/04 04:11:09;;;;;;;13.70;5.77;;;3.90;99.90;;;;;;5059088;28;20276;-62
2023/03/04 04:13:35;;;;;;;15.20;6.03;;;4.00;99.90;;;;;;5057597;28;20204;-62
2023/03/04 04:16:00;;;;;;;12.60;5.53;;;4.00;99.90;;;;;;5059040;28;20196;-61
2023/03/04 04:18:26;;;;;;;11.80;6.27;;;4.00;99.90;;;;;;5059326;28;20576;-60
2023/03/04 04:20:52;;;;;;;15.73;5.97;;;4.00;99.90;;;;;;5058890;28;20208;-61
2023/03/04 04:23:17;;;;;;;13.63;5.63;;;4.10;99.90;;;;;;4992425;28;20286;-61
2023/03/04 04:25:43;;;;;;;17.43;5.80;;;4.10;99.90;;;;;;5060398;28;20307;-61
2023/03/04 04:28:08;;;;;;;17.23;5.37;;;4.10;99.90;;;;;;5057017;28;20205;-62
2023/03/04 04:30:34;;;;;;;11.73;6.07;;;4.10;99.90;;;;;;5058776;28;20204;-61
2023/03/04 04:33:00;;;;;;;13.70;5.00;;;4.10;99.90;;;;;;5058715;28;20202;-62
2023/03/04 04:35:27;;;;;;;17.80;5.77;;;4.10;99.90;;;;;;5058761;28;20737;-61
2023/03/04 04:37:52;;;;;;;12.77;6.13;;;4.10;99.90;;;;;;5058725;28;20263;-62
2023/03/04 04:40:18;;;;;;;16.70;6.60;;;4.20;99.90;;;;;;5056652;28;20198;-61
2023/03/04 04:42:43;;;;;;;10.13;4.73;;;4.20;99.90;;;;;;5058675;28;20263;-62
2023/03/04 04:45:09;;;;;;;21.30;5.77;;;4.20;99.90;;;;;;5058512;28;20404;-61
2023/03/04 04:47:35;;;;;;;13.07;5.83;;;4.20;99.90;;;;;;5058686;28;20205;-64
2023/03/04 04:50:00;;;;;;;19.47;5.57;;;4.20;99.90;;;;;;5058305;28;20190;-65
2023/03/04 04:52:26;;;;;;;18.13;6.33;;;4.30;99.90;;;;;;5058487;28;20293;-64
2023/03/04 04:54:51;;;;;;;12.37;4.87;;;4.30;99.90;;;;;;5056699;28;20213;-64
2023/03/04 04:57:17;;;;;;;15.03;5.43;;;4.30;99.90;;;;;;5058439;28;20210;-60
2023/03/04 04:59:42;;;;;;;13.87;4.60;;;4.30;99.90;;;;;;5058248;28;20217;-61
2023/03/04 05:02:08;;;;;;;18.60;4.83;;;4.30;99.90;;;;;;5058278;28;20451;-63
2023/03/04 05:04:33;;;;;;;15.43;4.77;;;4.40;99.90;;;;;;5058469;28;20229;-60
2023/03/04 05:06:59;;;;;;;11.13;4.60;;;4.40;99.90;;;;;;5056096;28;20202;-61
2023/03/04 05:09:24;;;;;;;11.57;4.63;;;4.30;99.90;;;;;;5058642;28;20198;-61
2023/03/04 05:11:49;;;;;;;10.43;4.07;;;4.30;99.90;;;;;;5058129;28;20619;-61
2023/03/04 05:14:15;;;;;;;15.37;4.93;;;4.30;99.90;;;;;;5057931;28;20194;-62
2023/03/04 05:16:41;;;;;;;14.87;4.87;;;4.30;99.90;;;;;;5057669;28;20295;-62
2023/03/04 05:19:06;;;;;;;15.00;3.90;;;4.40;99.90;;;;;;5055841;28;20200;-63
2023/03/04 05:21:37;;;;;;;20.97;4.50;;;4.40;99.90;;;;;;5038803;28;20202;-66
2023/03/04 05:24:03;;;;;;;15.80;5.17;;;4.40;99.90;;;;;;5043009;28;20244;-61
2023/03/04 05:26:28;;;;;;;10.73;4.20;;;4.40;99.90;;;;;;5058513;28;20206;-62
2023/03/04 05:28:54;;;;;;;9.37;3.93;;;4.40;99.90;;;;;;5057850;28;20236;-62
2023/03/04 05:31:19;;;;;;;10.80;4.93;;;4.40;99.90;;;;;;5055681;28;20204;-62
2023/03/04 05:33:45;;;;;;;12.20;4.70;;;4.40;99.90;;;;;;5057544;28;20871;-62
2023/03/04 05:36:10;;;;;;;13.23;4.57;;;4.40;99.90;;;;;;5057586;28;20366;-63
2023/03/04 05:38:36;;;;;;;11.93;5.43;;;4.40;99.90;;;;;;5057493;28;20202;-63
2023/03/04 05:41:04;;;;;;;6.17;3.33;;;4.40;99.90;;;;;;5057118;28;20202;-62
2023/03/04 05:43:30;;;;;;;13.23;4.83;;;4.40;99.90;;;;;;5053175;28;20200;-62
2023/03/04 05:45:56;;;;;;;13.20;3.77;;;4.40;99.90;;;;;;5057184;28;20302;-62
2023/03/04 05:48:22;;;;;;;11.37;4.40;;;4.40;99.90;;;;;;5057317;28;20703;-62
2023/03/04 05:50:56;;;;;;;11.10;3.27;;;4.40;99.90;;;;;;5055453;28;20186;-62
2023/03/04 05:53:22;;;;;;;9.80;4.37;;;4.40;99.90;;;;;;5057050;28;20222;-62
2023/03/04 05:55:48;;;;;;;15.53;4.47;;;4.40;99.90;;;;;;5057220;28;20202;-63
2023/03/04 05:58:14;;;;;;;16.53;4.20;;;4.40;99.90;;;;;;5057159;28;20283;-62
2023/03/04 06:00:40;;;;;;;4.50;3.40;;;4.40;99.90;;;;;;5054940;28;20313;-62
2023/03/04 06:03:06;;;;;;;11.40;5.37;;;4.30;99.90;;;;;;5056981;28;20642;-62
2023/03/04 06:05:31;;;;;;;19.77;3.93;;;4.40;99.90;;;;;;5056634;28;20946;-62
2023/03/04 06:07:57;;;;;;;12.50;3.80;;;4.40;99.90;;;;;;5057037;28;20308;-62
2023/03/04 06:10:22;;;;;;;9.90;5.57;;;4.40;99.90;;;;;;5035509;28;20259;-63
2023/03/04 06:12:48;;;;;;;9.57;3.37;;;4.40;99.90;;;;;;5055567;28;20229;-62
2023/03/04 06:15:13;;;;;;;7.73;3.40;;;4.40;99.90;;;;;;5054899;28;20200;-62
2023/03/04 06:17:40;;;;;;;12.47;4.77;;;4.40;99.90;;;;;;5056649;28;20684;-62
2023/03/04 06:20:07;;;;;;;19.90;6.57;;;4.40;99.90;;;;;;5056461;28;20220;-62
2023/03/04 06:22:33;;;;;;;9.43;3.80;;;4.40;99.90;;;;;;4980986;28;20301;-61
2023/03/04 06:24:59;;;;;;;11.47;3.80;;;4.40;99.90;;;;;;5059746;28;20253;-62
2023/03/04 06:27:25;;;;;;;6.93;3.23;;;4.40;99.90;;;;;;5055415;28;20292;-65
2023/03/04 06:29:50;;;;;;;8.63;4.00;;;4.30;99.90;;;;;;5056706;28;20206;-62
2023/03/04 06:32:15;;;;;;;8.60;3.80;;;4.40;99.90;;;;;;5056900;28;21174;-62
2023/03/04 06:34:41;;;;;;;16.53;4.93;;;4.30;99.90;;;;;;5056971;28;20205;-67
2023/03/04 06:37:06;;;;;;;7.87;4.10;;;4.30;99.90;;;;;;5039579;28;20263;-63
2023/03/04 06:39:32;;;;;;;10.27;4.30;;;4.20;99.90;;;;;;5062409;28;20906;-62
2023/03/04 06:41:58;;;;;;;8.17;4.13;;;4.30;99.90;;;;;;5062355;28;20202;-60
2023/03/04 06:44:23;;;;;;;6.87;3.43;;;4.30;99.90;;;;;;5064522;28;20217;-61
2023/03/04 06:46:49;;;;;;;9.77;3.60;;;4.30;99.90;;;;;;5063033;28;20288;-62
2023/03/04 06:49:14;;;;;;;5.47;3.73;;;4.30;99.90;;;;;;5063524;28;20201;-63
2023/03/04 06:51:40;;;;;;;6.90;3.77;;;4.30;99.90;;;;;;5056404;28;20216;-62
2023/03/04 06:54:05;;;;;;;10.40;4.30;;;4.30;99.90;;;;;;5054466;28;20190;-63
2023/03/04 06:56:31;;;;;;;14.03;4.07;;;4.40;99.90;;;;;;5056454;28;20937;-63
2023/03/04 06:58:56;;;;;;;11.70;3.80;;;4.40;99.90;;;;;;5056767;28;20194;-64
2023/03/04 07:01:25;;;;;;;7.57;3.77;;;4.40;99.90;;;;;;5056141;28;20210;-62
2023/03/04 07:03:52;;;;;;;9.40;4.50;;;4.40;99.90;;;;;;5056391;28;20578;-62
2023/03/04 07:06:21;;;;;;;15.80;4.43;;;4.30;99.90;;;;;;5054324;28;20617;-62
2023/03/04 07:08:47;;;;;;;7.67;3.93;;;4.40;99.90;;;;;;5056367;28;20193;-62
2023/03/04 07:11:13;;;;;;;7.70;4.20;;;4.30;99.90;;;;;;5056450;28;20198;-64
2023/03/04 07:13:39;;;;;;;9.23;5.00;;;4.30;99.90;;;;;;5056287;28;20201;-65
2023/03/04 07:16:10;;;;;;;9.73;3.70;;;4.40;99.90;;;;;;5059494;28;20702;-64
2023/03/04 07:18:36;;;;;;;13.03;4.33;;;4.50;99.90;;;;;;5064199;28;20224;-65
2023/03/04 07:21:03;;;;;;;8.33;3.80;;;4.50;99.90;;;;;;5066819;28;20206;-63
2023/03/04 07:23:28;;;;;;;10.40;3.70;;;4.60;99.90;;;;;;5002205;28;20271;-64
2023/03/04 07:25:54;;;;;;;4.77;3.13;;;4.70;99.90;;;;;;5067044;28;20244;-63
2023/03/04 07:28:19;;;;;;;5.53;2.87;;;4.80;99.90;;;;;;5064022;28;20194;-70
2023/03/04 07:30:45;;;;;;;9.80;3.93;;;4.70;99.90;;;;;;5068593;28;20193;-69
2023/03/04 07:33:11;;;;;;;5.30;2.93;;;4.60;99.90;;;;;;5045548;28;20322;-69
2023/03/04 07:35:37;;;;;;;12.83;3.57;;;4.50;99.90;;;;;;5069562;28;20212;-69
2023/03/04 07:38:02;;;;;;;9.77;3.37;;;4.50;99.90;;;;;;5064560;28;20217;-70
2023/03/04 07:40:28;;;;;;;17.37;4.70;;;4.50;99.90;;;;;;5063900;28;20206;-70
2023/03/04 07:42:54;;;;;;;9.40;4.17;;;4.40;99.90;;;;;;5066210;28;20259;-69
2023/03/04 07:45:20;;;;;;;6.37;3.30;;;4.50;99.90;;;;;;5066160;28;20222;-69
2023/03/04 07:47:45;;;;;;;8.10;4.53;;;4.50;99.90;;;;;;5067594;28;20231;-69
2023/03/04 07:50:12;;;;;;;6.50;3.50;;;4.50;99.90;;;;;;5067775;28;20193;-68
2023/03/04 07:52:41;;;;;;;7.40;3.33;;;4.60;99.90;;;;;;5061129;28;20264;-72
2023/03/04 07:55:08;;;;;;;7.40;3.00;;;4.70;99.90;;;;;;5056180;28;20260;-68
2023/03/04 07:57:34;;;;;;;3.07;2.60;;;4.70;99.90;;;;;;5057897;28;20198;-68
2023/03/04 07:59:59;;;;;;;8.77;2.63;;;4.70;99.90;;;;;;5055639;28;20201;-68
2023/03/04 08:02:25;;;;;;;3.67;2.73;;;4.70;99.90;;;;;;5056113;28;20619;-67
2023/03/04 08:04:50;;;;;;;8.50;3.13;;;4.70;99.90;;;;;;5059280;28;20225;-70
2023/03/04 08:07:15;;;;;;;11.13;3.20;;;4.70;99.90;;;;;;5058624;28;20649;-70
2023/03/04 08:09:41;;;;;;;2.87;2.50;;;4.80;99.90;;;;;;5058497;28;20322;-70
2023/03/04 08:12:07;;;;;;;6.47;2.47;;;4.80;99.90;;;;;;5058476;28;20285;-67
2023/03/04 08:14:32;;;;;;;3.80;3.10;;;4.80;99.90;;;;;;5056512;28;20491;-68
2023/03/04 08:16:58;;;;;;;4.87;2.13;;;4.80;99.90;;;;;;5055074;28;20328;-67
2023/03/04 08:19:24;;;;;;;5.33;2.67;;;4.80;99.90;;;;;;5052315;28;20270;-72
2023/03/04 08:21:50;;;;;;;3.67;2.50;;;4.80;99.90;;;;;;5001694;28;20220;-66
2023/03/04 08:24:15;;;;;;;8.93;2.73;;;4.80;99.90;;;;;;5051612;28;20579;-65
2023/03/04 08:26:43;;;;;;;9.37;2.73;;;5.00;99.90;;;;;;5054020;28;20284;-63
2023/03/04 08:29:15;;;;;;;7.47;2.80;;;5.40;99.90;;;;;;5056813;28;20688;-63
2023/03/04 08:31:41;;;;;;;7.60;2.30;;;5.60;99.90;;;;;;5056938;28;20198;-67
2023/03/04 08:34:09;;;;;;;5.17;2.40;;;5.80;99.90;;;;;;5057155;28;20617;-66
2023/03/04 08:36:35;;;;;;;7.70;1.90;;;5.80;99.90;;;;;;5031136;28;20210;-64
2023/03/04 08:39:01;;;;;;;6.23;2.30;;;6.00;99.90;;;;;;5058781;28;20230;-67
2023/03/04 08:41:26;;;;;;;5.23;2.33;;;6.00;99.90;;;;;;5034915;28;20587;-62
2023/03/04 08:43:52;;;;;;;6.03;2.73;;;6.20;99.90;;;;;;5058344;28;20190;-62
2023/03/04 08:46:18;;;;;;;4.30;1.63;;;6.20;99.90;;;;;;5058306;28;20289;-62
2023/03/04 08:48:43;;;;;;;7.23;2.50;;;6.40;99.90;;;;;;5057018;28;20229;-66
2023/03/04 08:51:11;;;;;;;9.00;1.90;;;6.50;99.90;;;;;;5054426;28;20199;-63
2023/03/04 08:53:38;;;;;;;5.23;1.80;;;6.50;99.90;;;;;;5053614;28;20202;-64
2023/03/04 08:56:05;;;;;;;6.47;2.40;;;6.50;99.90;;;;;;5058131;28;20208;-65
2023/03/04 08:58:30;;;;;;;3.40;2.00;;;6.50;99.90;;;;;;5058487;28;20210;-62
2023/03/04 09:00:58;;;;;;;6.80;2.20;;;6.50;99.90;;;;;;5057645;28;20620;-65
2023/03/04 09:03:23;;;;;;;6.77;2.27;;;6.50;99.90;;;;;;5056558;28;20248;-62
2023/03/04 09:05:49;;;;;;;7.50;2.17;;;6.60;99.90;;;;;;5054900;28;20591;-62
2023/03/04 09:08:16;;;;;;;7.53;2.30;;;6.70;99.90;;;;;;5056795;28;20237;-63
2023/03/04 09:10:42;;;;;;;5.80;2.10;;;6.60;99.90;;;;;;5054340;28;20199;-62
2023/03/04 09:13:10;;;;;;;7.40;2.23;;;6.60;99.90;;;;;;5051841;28;20198;-62
2023/03/04 09:15:36;;;;;;;7.00;1.90;;;6.60;99.90;;;;;;5055115;28;20206;-63
2023/03/04 09:18:03;;;;;;;11.20;2.43;;;6.80;99.90;;;;;;5058180;28;20202;-72
2023/03/04 09:20:30;;;;;;;6.43;1.60;;;6.70;99.90;;;;;;5057536;28;20229;-65
2023/03/04 09:22:56;;;;;;;4.67;2.07;;;6.90;99.90;;;;;;4994528;28;20801;-66
2023/03/04 09:25:21;;;;;;;4.23;1.90;;;7.00;99.90;;;;;;5056481;28;20230;-66
2023/03/04 09:27:47;;;;;;;7.07;2.40;;;7.00;99.90;;;;;;5057165;28;20202;-83
2023/03/04 09:30:12;;;;;;;5.47;1.60;;;7.00;99.90;;;;;;5057287;28;20272;-85
2023/03/04 09:32:39;;;;;;;1.93;1.30;;;6.90;99.90;;;;;;5055739;28;20198;-83
2023/03/04 09:35:05;;;;;;;3.53;1.20;;;6.90;99.90;;;;;;5059552;28;20212;-83
2023/03/04 09:37:31;;;;;;;6.50;2.23;;;7.00;99.90;;;;;;5057657;28;20622;-81
2023/03/04 09:39:56;;;;;;;4.77;1.43;;;7.00;99.90;;;;;;5057108;28;20202;-82
2023/03/04 09:42:31;;;;;;;4.50;2.17;;;6.80;99.90;;;;;;5052877;28;20218;-80
2023/03/04 09:44:57;;;;;;;7.33;2.20;;;6.90;99.90;;;;;;5053990;28;20221;-83
2023/03/04 09:47:24;;;;;;;4.57;1.50;;;6.80;99.90;;;;;;5053841;28;20672;-82
2023/03/04 09:50:01;;;;;;;3.20;1.47;;;6.80;99.90;;;;;;5055817;28;20194;-83
2023/03/04 09:52:37;;;;;;;3.10;1.60;;;6.80;99.90;;;;;;5052521;28;20229;-83
2023/03/04 09:55:21;;;;;;;3.03;1.70;;;6.70;99.90;;;;;;5056171;28;20194;-83
2023/03/04 09:58:09;;;;;;;6.70;1.53;;;6.70;99.90;;;;;;5053502;28;20700;-82
2023/03/04 10:00:44;;;;;;;6.63;1.87;;;6.80;99.90;;;;;;5057477;28;20196;-83
2023/03/04 10:03:10;;;;;;;7.00;1.57;;;6.80;99.90;;;;;;5058854;28;20688;-83
2023/03/04 10:05:48;;;;;;;2.37;1.70;;;6.60;99.90;;;;;;5068337;28;20233;-75
2023/03/04 10:08:31;;;;;;;9.27;2.13;;;6.70;99.90;;;;;;5071695;28;20193;-76
2023/03/04 10:10:59;;;;;;;6.10;2.10;;;6.70;99.90;;;;;;5068736;28;20642;-82
2023/03/04 10:13:43;;;;;;;6.83;2.43;;;6.70;99.90;;;;;;5065636;28;20285;-80
2023/03/04 10:16:13;;;;;;;9.17;1.73;;;6.70;99.90;;;;;;5058288;28;20202;-80
2023/03/04 10:18:58;;;;;;;8.63;1.80;;;6.70;99.90;;;;;;5064057;28;20241;-82
2023/03/04 10:21:36;;;;;;;2.90;1.60;;;6.70;99.90;;;;;;5054335;28;20202;-80
2023/03/04 10:24:16;;;;;;;4.80;1.47;;;6.70;99.90;;;;;;5000646;28;20247;-83
2023/03/04 10:26:43;;;;;;;5.23;2.13;;;6.70;99.90;;;;;;5056690;28;20230;-80
2023/03/04 10:29:18;;;;;;;7.87;2.13;;;6.70;99.90;;;;;;5055390;28;20709;-84
2023/03/04 10:31:45;;;;;;;5.70;2.00;;;6.80;99.90;;;;;;5058572;28;20206;-81
2023/03/04 10:34:17;;;;;;;6.90;2.77;;;6.80;99.90;;;;;;5056441;28;20282;-80
2023/03/04 10:37:05;;;;;;;8.27;1.90;;;6.90;99.90;;;;;;5059325;28;20555;-82
2023/03/04 10:39:39;;;;;;;6.27;2.47;;;6.90;99.90;;;;;;5053123;28;20225;-83
2023/03/04 10:42:14;;;;;;;7.97;2.03;;;7.00;99.90;;;;;;5054008;28;20202;-80
2023/03/04 10:44:55;;;;;;;6.27;1.93;;;7.10;99.90;;;;;;5053882;28;20259;-81
2023/03/04 10:47:24;;;;;;;10.83;2.47;;;7.30;99.90;;;;;;5052625;28;20200;-81
2023/03/04 10:49:58;;;;;;;5.53;2.43;;;7.30;99.90;;;;;;5054194;28;20243;-82
2023/03/04 10:52:29;;;;;;;4.90;2.50;;;7.30;99.90;;;;;;5057554;28;20197;-82
2023/03/04 10:55:13;;;;;;;12.60;2.50;;;7.30;99.90;;;;;;5057268;28;20212;-79
2023/03/04 10:57:42;;;;;;;13.47;2.40;;;7.20;99.90;;;;;;5053339;28;20202;-82
2023/03/04 11:00:17;;;;;;;11.43;2.40;;;7.10;99.90;;;;;;5053890;28;20688;-81
2023/03/04 11:02:46;;;;;;;10.87;2.30;;;7.20;99.90;;;;;;5056537;28;20217;-82
2023/03/04 11:05:23;;;;;;;13.57;3.17;;;7.10;99.90;;;;;;5055017;28;20221;-82
2023/03/04 11:07:49;;;;;;;13.40;2.70;;;7.10;99.90;;;;;;5054016;28;20397;-82
2023/03/04 11:10:35;;;;;;;7.90;2.20;;;7.00;99.90;;;;;;5056463;28;20202;-75
2023/03/04 11:13:11;;;;;;;12.47;1.80;;;7.10;99.90;;;;;;5055014;28;20285;-75
2023/03/04 11:15:56;;;;;;;8.03;2.23;;;7.10;99.90;;;;;;5059151;28;20544;-79
2023/03/04 11:18:42;;;;;;;11.00;2.30;;;7.00;99.90;;;;;;5069148;28;20206;-82
2023/03/04 11:21:18;;;;;;;11.87;2.80;;;7.00;99.90;;;;;;5058325;28;20205;-81
2023/03/04 11:23:49;;;;;;;16.97;3.23;;;7.00;99.90;;;;;;5009047;28;20229;-79
2023/03/04 11:26:34;;;;;;;10.77;2.27;;;7.10;99.90;;;;;;5057898;28;20658;-81
2023/03/04 11:29:10;;;;;;;8.97;3.03;;;7.10;99.90;;;;;;5056253;28;20222;-82
2023/03/04 11:31:42;;;;;;;10.90;2.40;;;7.10;99.90;;;;;;5057884;28;20202;-80
2023/03/04 11:34:42;;;;;;;9.17;3.10;;;7.00;99.90;;;;;;5059073;28;20205;-81
2023/03/04 11:37:28;;;;;;;15.10;4.10;;;6.90;99.90;;;;;;5010050;28;20551;-77
2023/03/04 11:40:08;;;;;;;14.47;3.20;;;6.70;99.90;;;;;;5054369;28;20198;-81
2023/03/04 11:42:46;;;;;;;12.10;2.97;;;6.70;99.90;;;;;;5050834;28;20194;-79
2023/03/04 11:45:23;;;;;;;11.17;2.97;;;6.80;99.90;;;;;;5037822;28;20284;-80
2023/03/04 11:48:07;;;;;;;16.97;3.47;;;6.90;99.90;;;;;;5052693;28;20202;-83
2023/03/04 11:50:52;;;;;;;11.53;3.13;;;6.90;99.90;;;;;;5050440;28;20433;-73
2023/03/04 11:53:45;;;;;;;8.50;2.27;;;6.90;99.90;;;;;;5054777;28;20702;-74
2023/03/04 11:56:11;;;;;;;16.93;3.50;;;7.00;99.90;;;;;;5053657;28;20285;-82
2023/03/04 11:59:14;;;;;;;17.97;3.40;;;7.00;99.90;;;;;;5056298;28;20301;-84
2023/03/04 12:01:58;;;;;;;13.50;3.73;;;6.90;99.90;;;;;;5052019;28;20213;-81
2023/03/04 12:05:00;;;;;;;8.47;2.23;;;6.90;99.90;;;;;;5056120;28;20217;-77
2023/03/04 12:07:47;;;;;;;8.40;2.90;;;6.90;99.90;;;;;;5063286;28;20205;-80
2023/03/04 12:10:38;;;;;;;8.30;2.80;;;6.90;99.90;;;;;;5063464;28;20251;-80
2023/03/04 12:13:53;;;;;;;5.43;2.43;;;6.90;99.90;;;;;;5058187;28;20400;-76
2023/03/04 12:16:34;;;;;;;11.40;2.83;;;6.90;99.90;;;;;;5052968;28;20205;-81
2023/03/04 12:19:37;;;;;;;5.83;2.47;;;7.10;99.90;;;;;;5054539;28;20210;-81
2023/03/04 12:22:34;;;;;;;7.13;4.10;;;7.00;99.90;;;;;;5032849;28;20748;-71
2023/03/04 12:25:39;;;;;;;9.70;2.57;;;7.00;99.90;;;;;;5060413;28;20222;-81
2023/03/04 12:28:19;;;;;;;13.47;3.20;;;7.10;99.90;;;;;;5056631;28;20759;-81
2023/03/04 12:31:16;;;;;;;8.47;2.60;;;7.10;99.90;;;;;;5054038;28;20194;-81
2023/03/04 12:34:15;;;;;;;14.63;3.30;;;7.10;99.90;;;;;;5052104;28;20198;-81
2023/03/04 12:36:51;;;;;;;10.17;3.73;;;7.00;99.90;;;;;;5054286;28;20286;-83
2023/03/04 12:39:29;;;;;;;10.67;2.83;;;7.00;99.90;;;;;;5054097;28;20304;-84
2023/03/04 12:42:17;;;;;;;7.17;2.80;;;7.00;99.90;;;;;;5052379;28;20191;-81
2023/03/04 12:45:08;;;;;;;7.97;3.33;;;7.00;99.90;;;;;;5051295;28;21265;-80
2023/03/04 12:48:15;;;;;;;9.70;2.83;;;6.90;99.90;;;;;;5053845;28;20198;-79
2023/03/04 12:51:05;;;;;;;9.43;2.97;;;6.80;99.90;;;;;;5055649;28;20309;-83
2023/03/04 12:54:02;;;;;;;5.30;2.70;;;6.80;99.90;;;;;;5058181;28;20226;-82
2023/03/04 12:56:38;;;;;;;7.83;3.20;;;6.80;99.90;;;;;;5058005;28;20206;-82
2023/03/04 12:59:04;;;;;;;10.20;2.53;;;6.70;99.90;;;;;;5058375;28;20485;-81
2023/03/04 13:01:41;;;;;;;12.30;3.63;;;6.80;99.90;;;;;;5055685;28;20199;-79